Newark Fire Boat 1 — NFDFB1 — position and weather

sailwx.info

Track history (hours):
 
Tides and Currents Weather Stations Pressure Air Temp Water Temp Dewpoint Dewpoint Depression Visibility Wind Speed Wind Dir Waves Ship Positions

Newark Fire Boat 1

Last reported at 2014-Oct-10 21:05 UTC. Time now 2014-Oct-24 15:29 UTC.
Position N 40°42' W 074°07'.
Warning: this ship's position is 13 days out of date.

Length 16 m.

Type: Law enforcement. MMSI: 367522950.

Date/timePositionNaut miles runAvg speedWind from/ knotsBaromVisibWave heightAir tempDewpointWater temp
2014-Oct-10 21:05N 40°42' W 074°07'2 3.4
2014-Oct-10 20:33N 40°41' W 074°09'2 1.6
2014-Oct-10 19:31N 40°42' W 074°07'2 0.8
2014-Oct-10 17:28N 40°41' W 074°08'4 4.6
2014-Oct-10 16:33N 40°40' W 074°03'1 0.5
2014-Oct-10 14:33N 40°41' W 074°01'  
2014-Oct-07 20:33N 40°40' W 074°04'5 4.6
2014-Oct-07 19:32N 40°44' W 074°02'3 2.9
2014-Oct-07 18:33N 40°41' W 074°02'4 4.4
2014-Oct-07 17:33N 40°41' W 074°08'1 0.6
2014-Oct-07 15:32N 40°42' W 074°07'1 0.9
2014-Oct-07 14:31N 40°41' W 074°08'0 0.4
2014-Oct-07 13:22N 40°41' W 074°08'  
Track history (hours):
 
Tides and Currents Weather Stations Pressure Air Temp Water Temp Dewpoint Dewpoint Depression Visibility Wind Speed Wind Dir Waves Ship Positions

Newark Fire Boat 1

Last reported at 2014-Oct-10 21:05 UTC. Time now 2014-Oct-24 15:29 UTC.
Position N 40°42' W 074°07'.
Warning: this ship's position is 13 days out of date.

Length 16 m.

Type: Law enforcement. MMSI: 367522950.

Date/timePositionNaut miles runAvg speedWind from/ knotsBaromVisibWave heightAir tempDewpointWater temp
2014-Oct-10 21:05N 40°42' W 074°07'2 3.4
2014-Oct-10 20:33N 40°41' W 074°09'2 1.6
2014-Oct-10 19:31N 40°42' W 074°07'2 0.8
2014-Oct-10 17:28N 40°41' W 074°08'4 4.6
2014-Oct-10 16:33N 40°40' W 074°03'1 0.5
2014-Oct-10 14:33N 40°41' W 074°01'  
2014-Oct-07 20:33N 40°40' W 074°04'5 4.6
2014-Oct-07 19:32N 40°44' W 074°02'3 2.9
2014-Oct-07 18:33N 40°41' W 074°02'4 4.4
2014-Oct-07 17:33N 40°41' W 074°08'1 0.6
2014-Oct-07 15:32N 40°42' W 074°07'1 0.9
2014-Oct-07 14:31N 40°41' W 074°08'0 0.4
2014-Oct-07 13:22N 40°41' W 074°08'  

Dump ship's entire track history